Time;durP1;ratioP1;P1;durP2;ratioP2;P2;SDS_P1;SDS_P2;PMS_P1;PMS_P2;Temp;Humidity;BMP_temperature;BMP_pressure;BME280_temperature;BME280_humidity;BME280_pressure;Samples;Min_cycle;Max_cycle;Signal;HPM_P1;HPM_P2
2021/03/05 00:01:09;;;;;;;47.20;22.83;;;;;;;3.78;80.03;96984.50;5044770;28;20053;-64
2021/03/05 00:03:35;;;;;;;58.80;24.33;;;;;;;3.80;80.39;96993.22;5059603;28;20180;-65
2021/03/05 00:06:00;;;;;;;41.30;19.33;;;;;;;3.72;80.59;96995.97;5043151;28;20025;-64
2021/03/05 00:08:26;;;;;;;43.47;20.30;;;;;;;3.68;80.59;97006.81;5044514;28;20123;-64
2021/03/05 00:10:52;;;;;;;46.42;20.70;;;;;;;3.75;80.29;96998.88;5059541;28;20029;-63
2021/03/05 00:13:20;;;;;;;43.15;19.05;;;;;;;3.67;80.70;96993.41;5044222;28;20073;-64
2021/03/05 00:15:46;;;;;;;28.52;15.10;;;;;;;3.57;82.52;96989.13;5042957;28;20029;-64
2021/03/05 00:18:12;;;;;;;25.27;11.63;;;;;;;2.90;82.68;96892.34;5043072;28;20565;-64
2021/03/05 00:20:42;;;;;;;27.85;13.18;;;;;;;3.45;82.97;97013.59;5038617;28;20404;-65
2021/03/05 00:23:08;;;;;;;21.70;10.85;;;;;;;3.10;83.90;96935.44;5024560;28;20118;-64
2021/03/05 00:25:34;;;;;;;35.63;14.98;;;;;;;3.46;82.33;96965.13;5024127;28;20057;-63
2021/03/05 00:28:00;;;;;;;26.02;13.57;;;;;;;3.60;82.13;96971.22;5024280;28;20045;-63
2021/03/05 00:30:27;;;;;;;33.47;15.18;;;;;;;3.58;81.72;96968.81;5022712;28;20037;-64
2021/03/05 00:32:53;;;;;;;32.75;14.48;;;;;;;3.34;81.25;96938.44;5022889;28;20037;-63
2021/03/05 00:35:19;;;;;;;30.25;14.50;;;;;;;3.53;81.11;96970.91;5023937;28;20541;-63
2021/03/05 00:37:46;;;;;;;34.72;16.85;;;;;;;3.46;81.02;96971.44;5022601;28;20037;-63
2021/03/05 00:40:15;;;;;;;44.65;19.10;;;;;;;3.46;81.87;96974.16;5023977;28;20116;-63
2021/03/05 00:42:45;;;;;;;48.17;24.00;;;;;;;3.44;81.25;96973.69;5022041;28;20076;-64
2021/03/05 00:45:13;;;;;;;53.55;23.92;;;;;;;3.47;81.04;96991.38;5023839;28;20492;-65
2021/03/05 00:47:38;;;;;;;51.05;23.92;;;;;;;1.82;81.41;96718.91;5022576;28;20434;-63
2021/03/05 00:50:05;;;;;;;53.08;24.85;;;;;;;3.30;82.93;96970.34;5024130;28;20030;-63
2021/03/05 00:52:31;;;;;;;85.40;38.17;;;;;;;3.24;83.52;96963.41;5022100;28;20531;-63
2021/03/05 00:55:00;;;;;;;109.03;48.55;;;;;;;3.26;83.83;96955.69;5024055;28;20120;-63
2021/03/05 00:57:25;;;;;;;55.90;25.35;;;;;;;3.16;85.30;96961.53;5022071;28;20172;-63
2021/03/05 00:59:51;;;;;;;33.33;15.98;;;;;;;3.09;85.38;96948.31;5022338;28;20045;-64
2021/03/05 01:02:17;;;;;;;30.70;15.57;;;;;;;2.75;85.88;96910.06;5023916;28;20041;-63
2021/03/05 01:04:43;;;;;;;35.30;15.50;;;;;;;2.76;85.54;96914.44;5023669;28;20026;-63
2021/03/05 01:07:09;;;;;;;32.85;15.40;;;;;;;2.90;84.89;96936.13;5022076;28;20140;-63
2021/03/05 01:09:34;;;;;;;26.73;14.38;;;;;;;2.25;84.73;96842.56;5022424;28;20881;-63
2021/03/05 01:12:00;;;;;;;30.33;15.65;;;;;;;2.43;84.42;96860.56;5021782;28;20036;-63
2021/03/05 01:14:26;;;;;;;31.90;16.33;;;;;;;3.12;82.74;96933.19;5023753;28;20045;-64
2021/03/05 01:16:52;;;;;;;69.10;25.10;;;;;;;2.70;82.57;96860.22;5023643;28;20025;-63
2021/03/05 01:19:18;;;;;;;55.95;23.40;;;;;;;2.58;82.99;96865.53;5023570;28;20113;-63
2021/03/05 01:21:46;;;;;;;47.65;19.38;;;;;;;2.13;85.03;96850.59;5034896;28;20032;-63
2021/03/05 01:24:12;;;;;;;51.33;22.63;;;;;;;-0.23;84.04;96435.22;5042449;28;20040;-64
2021/03/05 01:26:40;;;;;;;54.92;24.38;;;;;;;2.46;84.38;96855.28;5043984;28;20029;-63
2021/03/05 01:29:07;;;;;;;38.25;18.05;;;;;;;2.91;84.64;96915.81;5041999;28;20121;-63
2021/03/05 01:31:34;;;;;;;43.00;19.80;;;;;;;2.98;83.96;96927.09;5043318;28;20408;-62
2021/03/05 01:34:00;;;;;;;47.40;19.15;;;;;;;2.86;83.87;96921.50;5041980;28;20112;-62
2021/03/05 01:36:26;;;;;;;53.13;23.58;;;;;;;2.69;85.10;96925.03;5043546;28;20071;-62
2021/03/05 01:38:52;;;;;;;55.38;27.92;;;;;;;2.26;85.94;96882.44;5043122;28;20037;-63
2021/03/05 01:41:17;;;;;;;98.45;41.13;;;;;;;1.70;84.74;96806.06;5041759;28;20029;-65
2021/03/05 01:43:43;;;;;;;45.35;21.35;;;;;;;1.97;83.79;96814.78;5043731;28;20029;-63
2021/03/05 01:46:09;;;;;;;48.42;20.75;;;;;;;1.98;84.66;96842.88;5041836;28;20454;-65
2021/03/05 01:48:37;;;;;;;32.60;15.77;;;;;;;1.90;84.17;96813.66;5041881;28;20477;-63
2021/03/05 01:51:08;;;;;;;33.63;16.25;;;;;;;2.59;86.10;96932.78;5041777;28;20412;-63
2021/03/05 01:53:34;;;;;;;30.35;13.70;;;;;;;2.54;86.29;96938.38;5043062;28;20411;-64
2021/03/05 01:56:01;;;;;;;36.92;15.95;;;;;;;1.57;86.06;96810.53;5045551;28;20033;-63
2021/03/05 01:58:27;;;;;;;36.47;17.17;;;;;;;2.64;86.02;96930.66;5047207;28;20033;-64
2021/03/05 02:01:08;;;;;;;33.28;15.73;;;;;;;2.75;85.64;96931.16;5045499;28;20320;-64
2021/03/05 02:03:34;;;;;;;32.05;15.27;;;;;;;1.94;84.54;96782.66;5047223;28;20037;-63
2021/03/05 02:06:01;;;;;;;47.88;19.48;;;;;;;2.64;84.20;96888.88;5045285;28;20033;-64
2021/03/05 02:08:27;;;;;;;37.65;16.17;;;;;;;2.81;84.24;96932.59;5046648;28;20091;-64
2021/03/05 02:10:52;;;;;;;33.67;14.60;;;;;;;2.85;84.93;96923.41;5046758;28;20065;-64
2021/03/05 02:13:18;;;;;;;27.90;13.65;;;;;;;2.60;85.38;96907.03;5044767;28;20511;-66
2021/03/05 02:15:45;;;;;;;26.58;13.68;;;;;;;1.72;86.42;96801.09;5046715;28;20590;-64
2021/03/05 02:18:30;;;;;;;26.65;13.88;;;;;;;2.46;84.75;96882.59;5047375;28;20039;-64
2021/03/05 02:21:26;;;;;;;32.58;17.05;;;;;;;1.84;85.20;96804.00;5040771;28;20048;-65
2021/03/05 02:24:22;;;;;;;33.08;15.23;;;;;;;2.65;85.04;96915.06;5026648;28;20042;-62
2021/03/05 02:27:06;;;;;;;27.42;13.52;;;;;;;2.67;85.72;96921.03;5026346;28;20044;-63
2021/03/05 02:29:55;;;;;;;29.05;14.65;;;;;;;2.68;85.19;96917.97;5026600;28;20045;-64
2021/03/05 02:32:33;;;;;;;28.90;13.60;;;;;;;2.69;85.45;96916.03;5015773;28;20064;-63
2021/03/05 02:35:00;;;;;;;30.08;12.38;;;;;;;2.30;86.26;96878.75;5025319;28;20040;-64
2021/03/05 02:37:30;;;;;;;26.20;13.57;;;;;;;2.75;85.29;96917.47;5026203;28;20064;-64
2021/03/05 02:39:59;;;;;;;32.67;13.82;;;;;;;2.77;83.99;96924.22;5024925;28;20038;-65
2021/03/05 02:42:31;;;;;;;29.02;14.50;;;;;;;2.64;83.89;96910.75;5025878;28;20037;-63
2021/03/05 02:45:04;;;;;;;25.20;13.30;;;;;;;2.79;84.09;96926.63;5024294;28;20520;-63
2021/03/05 02:47:32;;;;;;;27.42;13.85;;;;;;;2.71;85.11;96927.44;5026426;28;20136;-63
2021/03/05 02:49:58;;;;;;;25.50;13.00;;;;;;;2.35;84.42;96869.56;5026413;28;20036;-63
2021/03/05 02:52:26;;;;;;;32.95;14.02;;;;;;;2.55;84.61;96912.66;5026241;28;20634;-63
2021/03/05 02:54:55;;;;;;;35.40;13.77;;;;;;;2.49;83.87;96909.28;5026420;28;20457;-64
2021/03/05 02:57:24;;;;;;;36.17;14.13;;;;;;;2.69;82.75;96946.09;5026592;28;20039;-64
2021/03/05 02:59:51;;;;;;;39.97;17.08;;;;;;;2.32;81.99;96875.69;5024869;28;20915;-63
2021/03/05 03:02:23;;;;;;;42.95;18.00;;;;;;;2.60;82.24;96937.09;5026117;28;20120;-63
2021/03/05 03:04:49;;;;;;;35.33;15.27;;;;;;;2.52;83.23;96935.16;5024420;28;20039;-63
2021/03/05 03:07:15;;;;;;;44.30;16.13;;;;;;;2.42;84.24;96935.50;5025498;28;20400;-63
2021/03/05 03:09:42;;;;;;;29.92;14.13;;;;;;;2.48;84.70;96956.88;5025838;28;20091;-63
2021/03/05 03:12:11;;;;;;;44.95;18.80;;;;;;;1.11;85.45;96726.53;5025702;28;20029;-63
2021/03/05 03:14:41;;;;;;;47.70;18.60;;;;;;;2.26;86.55;96934.34;5024642;28;20037;-64
2021/03/05 03:17:11;;;;;;;38.77;17.27;;;;;;;1.50;86.73;96826.59;5025742;28;20041;-63
2021/03/05 03:19:38;;;;;;;35.45;16.15;;;;;;;2.31;85.79;96939.69;5025612;28;20061;-64
2021/03/05 03:22:05;;;;;;;31.70;14.73;;;;;;;1.76;84.66;96862.13;5040089;28;20120;-64
2021/03/05 03:24:31;;;;;;;30.60;13.93;;;;;;;2.29;85.67;96930.97;5045217;28;20621;-63
2021/03/05 03:26:58;;;;;;;29.15;12.85;;;;;;;2.28;86.57;96929.34;5043895;28;20145;-63
2021/03/05 03:29:25;;;;;;;31.85;14.52;;;;;;;2.11;85.88;96908.28;5043771;28;20415;-63
2021/03/05 03:31:50;;;;;;;33.58;14.63;;;;;;;1.68;84.38;96838.34;5045444;28;20034;-63
2021/03/05 03:34:16;;;;;;;32.65;14.13;;;;;;;1.61;84.18;96825.19;5043782;28;20036;-63
2021/03/05 03:36:43;;;;;;;36.08;15.32;;;;;;;1.51;83.92;96790.00;5044774;28;20045;-64
2021/03/05 03:39:10;;;;;;;29.65;13.63;;;;;;;2.11;84.97;96902.03;5044993;28;20041;-64
2021/03/05 03:41:37;;;;;;;30.30;14.23;;;;;;;2.23;85.31;96926.81;5043475;28;20033;-66
2021/03/05 03:44:06;;;;;;;33.50;12.48;;;;;;;2.39;85.29;96927.91;5044894;28;20033;-63
2021/03/05 03:46:34;;;;;;;30.85;14.10;;;;;;;2.33;84.34;96938.22;5043488;28;20083;-63
2021/03/05 03:49:09;;;;;;;26.33;13.55;;;;;;;1.78;84.51;96848.97;5044919;28;20124;-63
2021/03/05 03:51:42;;;;;;;36.08;15.52;;;;;;;2.26;84.75;96926.16;5045151;28;20082;-63
2021/03/05 03:54:13;;;;;;;35.53;13.80;;;;;;;2.20;84.56;96927.41;5044901;28;20029;-63
2021/03/05 03:56:42;;;;;;;29.33;13.35;;;;;;;2.13;86.27;96932.56;5044697;28;20045;-64
2021/03/05 03:59:11;;;;;;;34.20;16.20;;;;;;;1.62;86.46;96894.19;5045016;28;20103;-64
2021/03/05 04:01:38;;;;;;;37.78;19.30;;;;;;;1.77;85.75;96869.22;5044416;28;20471;-64
2021/03/05 04:04:06;;;;;;;34.05;15.32;;;;;;;1.71;85.80;96925.09;5044317;28;20822;-64
2021/03/05 04:06:34;;;;;;;35.58;17.60;;;;;;;1.08;86.69;96829.97;5042979;28;20533;-65
2021/03/05 04:09:01;;;;;;;39.55;18.08;;;;;;;1.88;87.38;96946.97;5045031;28;20103;-64
2021/03/05 04:11:28;;;;;;;39.67;19.30;;;;;;;2.05;87.26;96944.28;5045108;28;20539;-64
2021/03/05 04:13:54;;;;;;;33.50;17.58;;;;;;;2.04;87.75;96940.72;5043123;28;20407;-66
2021/03/05 04:16:20;;;;;;;34.20;17.30;;;;;;;1.73;86.82;96884.59;5042883;28;20196;-63
2021/03/05 04:18:45;;;;;;;32.58;15.30;;;;;;;0.75;85.98;96717.78;5044227;28;20047;-64
2021/03/05 04:21:20;;;;;;;38.65;19.67;;;;;;;1.80;85.30;96895.88;5036102;28;20040;-63
2021/03/05 04:23:48;;;;;;;32.75;15.20;;;;;;;1.06;85.84;96778.47;5024108;28;20532;-64
2021/03/05 04:26:14;;;;;;;36.58;16.65;;;;;;;2.07;85.46;96939.31;5024476;28;20387;-64
2021/03/05 04:28:40;;;;;;;35.65;15.95;;;;;;;2.04;85.94;96939.94;5024691;28;20045;-65
2021/03/05 04:31:05;;;;;;;35.38;17.50;;;;;;;1.94;86.37;96940.22;5022757;28;20021;-64
2021/03/05 04:33:31;;;;;;;48.45;25.73;;;;;;;1.38;85.86;96846.31;5024246;28;20052;-65
2021/03/05 04:35:57;;;;;;;45.67;24.35;;;;;;;1.84;86.14;96907.75;5022854;28;20168;-64
2021/03/05 04:38:22;;;;;;;40.70;21.25;;;;;;;1.37;86.13;96850.16;5023841;28;20041;-65
2021/03/05 04:40:48;;;;;;;36.80;19.80;;;;;;;1.98;86.26;96931.09;5022775;28;20022;-63
2021/03/05 04:43:14;;;;;;;37.28;17.48;;;;;;;1.56;86.94;96886.16;5024224;28;20219;-64
2021/03/05 04:45:40;;;;;;;38.25;16.50;;;;;;;1.22;87.98;96868.84;5024030;28;20033;-64
2021/03/05 04:48:07;;;;;;;36.20;16.88;;;;;;;1.98;86.73;96930.28;5024439;28;20065;-64
2021/03/05 04:50:36;;;;;;;35.95;17.90;;;;;;;1.95;87.31;96941.84;5023795;28;20037;-65
2021/03/05 04:53:03;;;;;;;45.97;22.75;;;;;;;-1.58;86.98;96383.41;5023964;28;20614;-64
2021/03/05 04:55:29;;;;;;;41.08;19.23;;;;;;;1.87;87.75;96935.22;5023321;28;20512;-64
2021/03/05 04:57:56;;;;;;;44.33;20.92;;;;;;;2.00;86.81;96944.41;5023986;28;20121;-63
2021/03/05 05:00:22;;;;;;;38.60;21.88;;;;;;;1.69;86.85;96891.81;5022023;28;20026;-64
2021/03/05 05:02:50;;;;;;;66.93;34.28;;;;;;;2.00;87.07;96944.41;5024019;28;20037;-64
2021/03/05 05:05:16;;;;;;;31.58;15.50;;;;;;;1.51;85.75;96943.63;5023764;28;20036;-64
2021/03/05 05:07:42;;;;;;;33.75;15.25;;;;;;;2.10;84.44;96949.59;5038393;28;20393;-65
2021/03/05 05:10:09;;;;;;;59.53;26.85;;;;;;;2.14;83.87;96951.38;5021833;28;20110;-66
2021/03/05 05:12:35;;;;;;;39.00;18.70;;;;;;;2.00;83.17;96956.16;5023389;28;20053;-63
2021/03/05 05:15:01;;;;;;;33.13;15.57;;;;;;;1.88;83.53;96953.22;5021887;28;20208;-64
2021/03/05 05:17:26;;;;;;;32.35;14.85;;;;;;;1.79;83.89;96959.81;5022080;28;20041;-65
2021/03/05 05:19:53;;;;;;;38.47;18.35;;;;;;;0.36;84.49;96824.00;5023157;28;20063;-63
2021/03/05 05:22:19;;;;;;;64.20;29.27;;;;;;;1.10;84.77;96872.19;5039453;28;20033;-63
2021/03/05 05:24:45;;;;;;;69.15;29.35;;;;;;;1.94;84.70;96956.63;5043763;28;20021;-63
2021/03/05 05:27:11;;;;;;;87.30;34.78;;;;;;;1.97;85.06;96961.44;5042141;28;20039;-63
2021/03/05 05:29:36;;;;;;;70.38;36.17;;;;;;;1.03;85.38;96811.84;5045556;28;20657;-63
2021/03/05 05:32:02;;;;;;;67.80;31.85;;;;;;;0.91;84.77;96765.28;5047858;28;20036;-64
2021/03/05 05:34:28;;;;;;;73.85;32.60;;;;;;;2.41;83.52;96966.66;5046268;28;20037;-66
2021/03/05 05:36:57;;;;;;;66.32;29.90;;;;;;;2.34;83.28;96941.75;5047521;28;20037;-62
2021/03/05 05:39:22;;;;;;;62.63;29.92;;;;;;;2.40;83.21;96938.53;5047571;28;20021;-63
2021/03/05 05:41:48;;;;;;;61.33;28.67;;;;;;;2.28;82.40;96891.09;5046226;28;20419;-62
2021/03/05 05:44:16;;;;;;;52.72;26.42;;;;;;;2.93;81.66;96995.66;5047466;28;20029;-63
2021/03/05 05:46:42;;;;;;;54.80;24.05;;;;;;;2.58;81.59;96917.47;5047309;28;20425;-62
2021/03/05 05:49:10;;;;;;;61.13;30.42;;;;;;;2.12;81.33;96868.13;5047556;28;20082;-63
2021/03/05 05:51:39;;;;;;;69.13;32.60;;;;;;;3.29;81.04;96971.44;5047156;28;20025;-64
2021/03/05 05:54:10;;;;;;;109.95;50.25;;;;;;;3.38;80.40;96980.47;5046850;28;20032;-62
2021/03/05 05:56:40;;;;;;;88.30;39.75;;;;;;;0.87;79.34;96532.59;5047035;28;20124;-62
2021/03/05 05:59:07;;;;;;;69.68;32.50;;;;;;;3.45;79.75;96928.75;5047288;28;20035;-63
2021/03/05 06:01:36;;;;;;;80.30;38.95;;;;;;;3.25;79.49;96885.66;5045490;28;20033;-64
2021/03/05 06:04:04;;;;;;;80.13;38.40;;;;;;;3.21;78.93;96820.97;5046563;28;20116;-64
2021/03/05 06:06:30;;;;;;;80.97;39.53;;;;;;;4.13;78.56;96985.97;5046777;28;20432;-64
2021/03/05 06:09:01;;;;;;;82.20;40.05;;;;;;;4.40;78.38;96969.06;5046895;28;20043;-64
2021/03/05 06:11:34;;;;;;;71.47;37.25;;;;;;;4.58;77.82;96969.75;5046896;28;20040;-62
2021/03/05 06:14:07;;;;;;;;;;;;;;;4.88;75.91;96956.75;5046970;28;20572;-65
2021/03/05 06:16:33;;;;;;;58.00;30.90;;;;;;;4.89;75.96;96969.31;5046299;28;19964;-64
2021/03/05 06:19:00;;;;;;;66.50;28.88;;;;;;;4.06;78.95;96913.63;5046304;28;20033;-63
2021/03/05 06:21:40;;;;;;;50.22;24.30;;;;;;;3.13;81.91;96838.22;5036601;28;20033;-64
2021/03/05 06:24:08;;;;;;;34.83;18.98;;;;;;;3.89;83.13;96984.97;5026473;28;20412;-65
2021/03/05 06:26:51;;;;;;;35.75;18.45;;;;;;;3.66;82.92;96987.16;5024643;28;20029;-65
2021/03/05 06:29:19;;;;;;;33.13;16.98;;;;;;;3.79;83.13;96980.66;5025007;28;20037;-65
2021/03/05 06:31:56;;;;;;;37.20;18.10;;;;;;;3.77;80.66;96916.38;5026039;28;20025;-65
2021/03/05 06:34:23;;;;;;;35.75;17.58;;;;;;;4.35;80.06;96988.44;5025097;28;20040;-65
2021/03/05 06:37:19;;;;;;;35.45;17.27;;;;;;;4.68;77.98;96985.00;5024673;28;20652;-65
2021/03/05 06:39:56;;;;;;;37.10;17.98;;;;;;;4.33;75.82;96886.50;5024461;28;20538;-64
2021/03/05 06:42:24;;;;;;;36.50;19.95;;;;;;;3.89;75.90;96793.97;5025429;28;20050;-65
2021/03/05 06:44:50;;;;;;;44.72;20.40;;;;;;;5.36;74.91;96984.41;5024715;28;20446;-65
2021/03/05 06:47:20;;;;;;;39.65;21.30;;;;;;;5.62;74.38;96982.19;5024577;28;20122;-65
2021/03/05 06:49:48;;;;;;;51.15;26.48;;;;;;;5.97;73.50;96975.19;5024540;28;20033;-65
2021/03/05 06:52:17;;;;;;;56.63;27.95;;;;;;;6.05;72.31;96974.28;5026111;28;20116;-65
2021/03/05 06:54:43;;;;;;;47.22;26.20;;;;;;;6.26;71.76;96974.16;5025603;28;20548;-65
2021/03/05 06:57:10;;;;;;;49.38;25.52;;;;;;;5.86;70.82;96864.09;5040451;28;20451;-66
2021/03/05 06:59:37;;;;;;;40.08;22.20;;;;;;;6.73;70.70;96984.34;5024372;28;20032;-66
2021/03/05 07:02:07;;;;;;;47.60;24.17;;;;;;;5.87;70.08;96832.69;5023922;28;20041;-65
2021/03/05 07:04:43;;;;;;;44.35;25.75;;;;;;;7.26;69.21;96964.66;5025911;28;20053;-65
2021/03/05 07:07:11;;;;;;;50.30;25.17;;;;;;;6.14;68.73;96746.75;5024545;28;20108;-64
2021/03/05 07:09:44;;;;;;;50.92;27.08;;;;;;;7.44;67.51;96910.84;5025909;28;20160;-64
2021/03/05 07:12:18;;;;;;;53.83;27.42;;;;;;;8.05;66.27;96960.06;5025282;28;20069;-63
2021/03/05 07:14:49;;;;;;;49.55;27.42;;;;;;;8.36;64.86;96957.31;5025554;28;20156;-61
2021/03/05 07:17:17;;;;;;;39.33;22.85;;;;;;;8.24;64.13;96932.56;5025836;28;20475;-66
2021/03/05 07:19:43;;;;;;;36.55;21.02;;;;;;;8.70;63.01;96962.88;5024653;28;20018;-64
2021/03/05 07:22:10;;;;;;;31.83;18.77;;;;;;;8.99;61.53;96958.78;5039095;28;20476;-64
2021/03/05 07:24:38;;;;;;;23.75;12.00;;;;;;;8.54;60.18;96941.97;5045181;28;20036;-64
2021/03/05 07:27:07;;;;;;;23.88;14.10;;;;;;;8.46;62.56;96973.31;5043668;28;20044;-65
2021/03/05 07:29:34;;;;;;;22.33;13.75;;;;;;;8.84;62.39;96959.63;5043957;28;20037;-66
2021/03/05 07:32:05;;;;;;;25.48;14.10;;;;;;;8.97;61.49;96963.84;5045231;28;20068;-65
2021/03/05 07:34:45;;;;;;;24.40;14.27;;;;;;;9.22;60.92;96959.66;5040261;28;20053;-66
2021/03/05 07:37:12;;;;;;;32.33;13.05;;;;;;;7.12;58.69;96636.53;5040252;28;20029;-64
2021/03/05 07:39:49;;;;;;;26.85;12.70;;;;;;;9.75;57.53;96953.22;5025392;28;20044;-66
2021/03/05 07:42:16;;;;;;;28.33;13.93;;;;;;;9.96;57.85;96942.50;5030793;28;20033;-64
2021/03/05 07:44:42;;;;;;;24.45;13.55;;;;;;;9.97;57.96;96949.66;5031372;28;20510;-64
2021/03/05 07:47:13;;;;;;;27.73;14.73;;;;;;;10.02;59.28;96935.50;5034492;28;20037;-65
2021/03/05 07:49:40;;;;;;;33.40;16.15;;;;;;;10.26;58.89;96918.53;5024990;28;20128;-66
2021/03/05 07:52:08;;;;;;;23.85;13.82;;;;;;;9.96;56.06;96870.56;5024241;28;20048;-66
2021/03/05 07:54:39;;;;;;;24.92;13.70;;;;;;;10.61;55.88;96938.47;5022128;28;20424;-65
2021/03/05 07:57:28;;;;;;;31.20;13.82;;;;;;;7.41;55.21;96382.53;5024558;28;20124;-65
2021/03/05 07:59:56;;;;;;;26.33;13.55;;;;;;;11.21;53.54;96932.97;5005368;28;20042;-66
2021/03/05 08:02:22;;;;;;;23.45;13.70;;;;;;;11.44;53.29;96922.56;5033228;28;20037;-63
2021/03/05 08:04:48;;;;;;;23.63;13.52;;;;;;;11.53;52.82;96920.28;5021393;28;20873;-60
2021/03/05 08:07:20;;;;;;;26.90;14.13;;;;;;;11.70;52.51;96914.16;5032698;28;20037;-66
2021/03/05 08:09:45;;;;;;;28.60;14.18;;;;;;;11.32;52.05;96834.06;5029408;28;20559;-62
2021/03/05 08:12:45;;;;;;;26.33;14.40;;;;;;;12.00;52.08;96915.66;5026389;28;20045;-63
2021/03/05 08:15:11;;;;;;;25.25;14.27;;;;;;;12.30;50.70;96915.50;5024644;28;20036;-62
2021/03/05 08:17:44;;;;;;;22.10;14.02;;;;;;;12.16;50.89;96863.44;5030310;28;20417;-60
2021/03/05 08:20:30;;;;;;;;;;;;;;;12.30;51.08;96915.50;5032922;28;20029;-61
2021/03/05 08:22:58;;;;;;;25.67;15.30;;;;;;;12.16;51.95;96910.66;5042393;28;19932;-59
2021/03/05 08:25:47;;;;;;;28.40;15.93;;;;;;;12.51;51.01;96910.13;5043667;28;20041;-60
2021/03/05 08:28:36;;;;;;;28.05;15.93;;;;;;;12.80;49.73;96898.03;5033697;28;20041;-60
2021/03/05 08:31:01;;;;;;;35.67;14.93;;;;;;;12.77;48.99;96840.41;5025842;28;20585;-62
2021/03/05 08:33:33;;;;;;;32.38;16.90;;;;;;;13.29;48.17;96905.84;5027470;28;20091;-61
2021/03/05 08:35:59;;;;;;;31.33;15.93;;;;;;;13.54;47.17;96890.84;5032311;28;20091;-62
2021/03/05 08:38:36;;;;;;;35.83;17.00;;;;;;;13.61;46.45;96862.19;5034655;28;20033;-62
2021/03/05 08:41:04;;;;;;;31.42;16.65;;;;;;;13.66;45.91;96898.81;5025604;28;20033;-63
2021/03/05 08:43:33;;;;;;;32.25;17.58;;;;;;;13.63;45.63;96860.63;5039412;28;20040;-61
2021/03/05 08:46:04;;;;;;;29.08;15.95;;;;;;;13.78;45.62;96863.44;5032131;28;20068;-65
2021/03/05 08:48:40;;;;;;;39.03;17.75;;;;;;;13.99;45.43;96871.84;5018739;28;20068;-62
2021/03/05 08:51:20;;;;;;;33.42;18.05;;;;;;;14.02;44.59;96854.31;5027531;28;20048;-62
2021/03/05 08:53:56;;;;;;;36.55;18.50;;;;;;;13.93;45.81;96867.81;5024504;28;20044;-61
2021/03/05 08:56:27;;;;;;;49.97;25.17;;;;;;;13.97;45.71;96868.66;5031378;28;20113;-62
2021/03/05 08:58:59;;;;;;;32.70;18.38;;;;;;;14.22;44.56;96863.88;5034360;28;20071;-67
2021/03/05 09:01:35;;;;;;;32.55;19.15;;;;;;;13.58;43.69;96719.09;5026662;28;20495;-65
2021/03/05 09:04:14;;;;;;;33.15;18.92;;;;;;;14.69;44.04;96849.50;5033913;28;20483;-64
2021/03/05 09:06:48;;;;;;;24.15;13.45;;;;;;;14.57;39.89;96888.97;5015674;28;20499;-62
2021/03/05 09:09:14;;;;;;;30.35;15.05;;;;;;;14.52;40.45;96806.56;5024172;28;20488;-61
2021/03/05 09:11:40;;;;;;;26.95;13.88;;;;;;;13.96;38.36;96674.91;5034975;28;20025;-61
2021/03/05 09:14:24;;;;;;;24.52;13.40;;;;;;;15.50;37.23;96838.88;5029461;28;20060;-65
2021/03/05 09:17:00;;;;;;;25.58;12.77;;;;;;;15.74;36.79;96840.72;5029072;28;20076;-62
2021/03/05 09:19:43;;;;;;;20.25;12.48;;;;;;;15.90;35.88;96846.59;5020679;28;20500;-65
2021/03/05 09:22:15;;;;;;;23.92;12.70;;;;;;;15.27;36.49;96715.00;5015295;28;20034;-69
2021/03/05 09:24:50;;;;;;;26.27;14.88;;;;;;;16.20;38.27;96837.59;5035666;28;20040;-67
2021/03/05 09:27:18;;;;;;;39.15;20.27;;;;;;;16.04;37.85;96773.88;5024196;28;20556;-68
2021/03/05 09:29:43;;;;;;;33.63;15.68;;;;;;;16.01;36.71;96807.41;5018503;28;20077;-69
2021/03/05 09:32:09;;;;;;;26.23;14.20;;;;;;;15.69;37.02;96712.72;5021397;28;20041;-73
2021/03/05 09:34:51;;;;;;;29.08;14.10;;;;;;;16.08;34.38;96752.25;5040593;28;20047;-68
2021/03/05 09:37:19;;;;;;;21.35;12.00;;;;;;;16.12;33.84;96763.41;5038378;28;20029;-70
2021/03/05 09:39:47;;;;;;;26.25;15.02;;;;;;;16.74;33.19;96816.34;5032563;28;20506;-67
2021/03/05 09:42:13;;;;;;;22.85;12.77;;;;;;;17.03;32.53;96824.00;5040797;28;20054;-68
2021/03/05 09:44:43;;;;;;;23.02;13.57;;;;;;;16.37;30.90;96720.03;5027108;28;20033;-70
2021/03/05 09:47:09;;;;;;;20.38;12.95;;;;;;;17.36;29.58;96830.78;5024406;28;20068;-70
2021/03/05 09:49:34;;;;;;;17.95;11.55;;;;;;;16.89;30.92;96778.59;5022842;28;20460;-68
2021/03/05 09:52:00;;;;;;;15.88;11.07;;;;;;;16.73;30.16;96725.22;5022965;28;20499;-65
2021/03/05 09:54:37;;;;;;;18.08;11.60;;;;;;;17.46;30.63;96810.28;5025077;28;20037;-63
2021/03/05 09:57:04;;;;;;;36.95;15.85;;;;;;;17.10;29.17;96769.94;5003971;28;20041;-66
2021/03/05 09:59:51;;;;;;;19.08;13.32;;;;;;;17.47;29.34;96800.66;5030638;28;20040;-65
2021/03/05 10:02:20;;;;;;;17.05;10.52;;;;;;;17.39;29.47;96763.53;5033996;28;20106;-65
2021/03/05 10:04:48;;;;;;;15.88;11.60;;;;;;;17.28;28.94;96728.50;5011732;28;20033;-65
2021/03/05 10:07:15;;;;;;;15.75;10.40;;;;;;;17.74;28.85;96767.84;5022697;28;20420;-62
2021/03/05 10:09:40;;;;;;;18.83;12.38;;;;;;;17.67;28.51;96751.94;5032911;28;20520;-64
2021/03/05 10:12:06;;;;;;;15.63;10.93;;;;;;;18.05;28.98;96784.16;5021448;28;20042;-63
2021/03/05 10:14:35;;;;;;;15.07;11.05;;;;;;;18.29;27.90;96782.16;5023376;28;20060;-64
2021/03/05 10:17:15;;;;;;;13.65;10.05;;;;;;;17.50;27.97;96662.59;5038858;28;20098;-67
2021/03/05 10:19:43;;;;;;;13.23;9.95;;;;;;;17.96;27.58;96780.31;5032403;28;20115;-64
2021/03/05 10:22:10;;;;;;;13.77;9.30;;;;;;;17.63;28.03;96705.59;5013377;28;20516;-65
2021/03/05 10:24:35;;;;;;;12.50;9.15;;;;;;;17.99;27.36;96751.44;5034117;28;20030;-66
2021/03/05 10:29:57;;;;;;;18.83;11.35;;;;;;;18.34;28.01;96767.66;5011026;28;20034;-65
2021/03/05 10:32:23;;;;;;;14.95;10.40;;;;;;;18.55;27.79;96761.69;5021594;28;20042;-65
2021/03/05 10:34:50;;;;;;;16.05;11.43;;;;;;;18.30;27.17;96722.06;5012145;28;20033;-66
2021/03/05 10:37:17;;;;;;;12.70;9.93;;;;;;;17.97;28.45;96745.47;5026117;28;20029;-64
2021/03/05 10:39:44;;;;;;;12.40;8.55;;;;;;;18.09;28.32;96756.06;5027698;28;20563;-65
2021/03/05 10:42:12;;;;;;;12.93;9.65;;;;;;;17.30;28.86;96686.88;5026102;28;20121;-63
2021/03/05 10:44:39;;;;;;;14.93;9.23;;;;;;;17.78;28.24;96690.16;5030710;28;20037;-66
2021/03/05 10:47:07;;;;;;;16.20;9.95;;;;;;;18.13;28.72;96728.75;5025715;28;20034;-65
2021/03/05 10:49:33;;;;;;;15.10;9.43;;;;;;;18.05;27.76;96688.84;5011591;28;20029;-63
2021/03/05 10:51:59;;;;;;;14.52;9.70;;;;;;;18.07;27.94;96744.50;5018074;28;20801;-66
2021/03/05 10:54:25;;;;;;;13.25;9.70;;;;;;;18.00;27.85;96748.19;5044489;28;20068;-66
2021/03/05 10:56:52;;;;;;;14.63;9.00;;;;;;;18.00;28.13;96745.41;5045717;28;20116;-66
2021/03/05 10:59:19;;;;;;;14.63;9.63;;;;;;;18.16;27.69;96739.16;5040290;28;20037;-65
2021/03/05 11:01:46;;;;;;;15.80;9.80;;;;;;;17.97;27.65;96641.78;5034403;28;20511;-63
2021/03/05 11:04:15;;;;;;;13.52;9.50;;;;;;;18.80;26.27;96741.56;5026322;28;20166;-68
2021/03/05 11:06:43;;;;;;;12.55;9.15;;;;;;;18.78;25.74;96708.31;5026027;28;20064;-65
2021/03/05 11:09:10;;;;;;;11.52;8.80;;;;;;;19.17;25.03;96735.59;5023873;28;20032;-66
2021/03/05 11:11:35;;;;;;;14.15;9.75;;;;;;;18.66;24.40;96644.44;5038803;28;20112;-66
2021/03/05 11:14:02;;;;;;;15.23;9.00;;;;;;;18.83;24.15;96626.41;5042667;28;20477;-71
2021/03/05 11:16:27;;;;;;;15.10;9.98;;;;;;;19.30;23.51;96686.75;5035685;28;20030;-68
2021/03/05 11:18:53;;;;;;;21.58;16.65;;;;;;;18.98;23.60;96717.53;5026848;28;20037;-67
2021/03/05 11:21:19;;;;;;;11.70;8.90;;;;;;;18.99;23.64;96685.41;5031033;28;20029;-67
2021/03/05 11:23:45;;;;;;;12.02;8.88;;;;;;;19.11;24.30;96653.09;5034210;28;20036;-64
2021/03/05 11:26:12;;;;;;;14.90;9.07;;;;;;;19.51;24.03;96716.38;5028227;28;20572;-65
2021/03/05 11:28:38;;;;;;;11.38;8.50;;;;;;;19.49;22.61;96711.19;5032936;28;20033;-68
2021/03/05 11:31:04;;;;;;;10.30;8.30;;;;;;;19.68;22.98;96686.28;5033816;28;20743;-66
2021/03/05 11:33:30;;;;;;;14.93;9.55;;;;;;;19.81;22.56;96695.56;5025414;28;20035;-69
2021/03/05 11:35:56;;;;;;;11.73;8.00;;;;;;;19.86;21.36;96686.63;5024357;28;20034;-68